Pearcot, Washington
Current Conditions -  °F | °C
As of 3:55 PM on Saturday 22 Nov 2014 (Local Time) from KEAT Reporting Station
Clear Clear  
Wind Chill: 36°   Ceiling: Unl
Heat Index: 44°   Visibility: 10mi
Dew Point: 33°   Wind: 20mph
Humidity: 65%   Direction: 330°NNW
Pressure: 29.81"   Gusts: 29mph
Location:  47.3635°N, 120.348°W
Report Text: KEAT 222355Z AUTO 33017G25KT 10SM CLR 07/01 A2981 RMK AO2 SLP101 60000 T00670006 10072 20022 53031
Loading
Personal Weather Stations






























Interactive Weather Map New forecast layout! Learn more

10-Day Weather Forecast

Advertisements
Track Severe Weather on mobile